Time;durP1;ratioP1;P1;durP2;ratioP2;P2;SDS_P1;SDS_P2;PMS_P1;PMS_P2;Temp;Humidity;BMP_temperature;BMP_pressure;BME280_temperature;BME280_humidity;BME280_pressure;Samples;Min_cycle;Max_cycle;Signal;HPM_P1;HPM_P2
2023/11/23 00:02:15;;;;;;;20.88;14.18;;;1.50;99.90;;;;;;4965767;28;20110;-39
2023/11/23 00:04:41;;;;;;;21.33;13.85;;;1.50;99.90;;;;;;4962416;28;20054;-40
2023/11/23 00:07:07;;;;;;;19.75;12.98;;;1.50;99.90;;;;;;4964038;28;20026;-36
2023/11/23 00:09:33;;;;;;;13.80;8.52;;;1.40;99.90;;;;;;4962857;28;20546;-37
2023/11/23 00:11:59;;;;;;;12.20;9.25;;;1.40;99.90;;;;;;4966218;28;20092;-39
2023/11/23 00:14:25;;;;;;;9.05;6.32;;;1.40;99.90;;;;;;4963867;28;20126;-37
2023/11/23 00:16:51;;;;;;;10.82;6.93;;;1.50;99.90;;;;;;4965884;28;20141;-39
2023/11/23 00:19:16;;;;;;;12.82;8.40;;;1.30;99.90;;;;;;4968720;28;20050;-40
2023/11/23 00:21:42;;;;;;;12.60;7.55;;;1.30;99.90;;;;;;4968155;28;20026;-40
2023/11/23 00:24:08;;;;;;;13.82;8.13;;;1.20;99.90;;;;;;4968489;28;20061;-40
2023/11/23 00:26:34;;;;;;;11.75;7.13;;;1.20;99.90;;;;;;4965473;28;20053;-39
2023/11/23 00:29:01;;;;;;;10.48;7.00;;;1.20;99.90;;;;;;4966356;28;20026;-40
2023/11/23 00:31:27;;;;;;;11.68;7.10;;;1.20;99.90;;;;;;4964693;28;20562;-37
2023/11/23 00:33:52;;;;;;;9.15;5.95;;;1.20;99.90;;;;;;4968397;28;20110;-39
2023/11/23 00:36:18;;;;;;;8.70;5.47;;;1.10;99.90;;;;;;4967498;28;20055;-39
2023/11/23 00:38:45;;;;;;;9.52;5.53;;;1.10;99.90;;;;;;4965303;28;20031;-35
2023/11/23 00:41:10;;;;;;;8.27;5.05;;;1.00;99.90;;;;;;4964189;28;20030;-34
2023/11/23 00:43:36;;;;;;;10.20;6.03;;;1.00;99.90;;;;;;4963246;28;20038;-33
2023/11/23 00:46:04;;;;;;;11.00;6.43;;;0.90;99.90;;;;;;4967423;28;20031;-34
2023/11/23 00:48:30;;;;;;;8.27;5.72;;;0.80;99.90;;;;;;4967788;28;20030;-35
2023/11/23 00:50:56;;;;;;;10.27;5.80;;;0.70;99.90;;;;;;4967682;28;20046;-41
2023/11/23 00:53:22;;;;;;;9.57;5.65;;;0.70;99.90;;;;;;4967195;28;20061;-33
2023/11/23 00:55:48;;;;;;;13.43;6.65;;;0.70;99.90;;;;;;4967077;28;20038;-40
2023/11/23 00:58:14;;;;;;;11.65;6.07;;;0.80;99.90;;;;;;4968085;28;20037;-31
2023/11/23 01:00:40;;;;;;;9.20;6.07;;;0.80;99.90;;;;;;4969377;28;20436;-31
2023/11/23 01:03:06;;;;;;;9.00;5.40;;;0.90;99.90;;;;;;4970493;28;20066;-30
2023/11/23 01:05:32;;;;;;;9.18;5.35;;;0.90;99.90;;;;;;4968198;28;20433;-31
2023/11/23 01:07:58;;;;;;;9.68;6.53;;;0.90;99.90;;;;;;4973588;28;20082;-30
2023/11/23 01:10:26;;;;;;;9.43;5.65;;;0.90;99.90;;;;;;4967687;28;20031;-30
2023/11/23 01:12:52;;;;;;;8.27;5.57;;;0.80;99.90;;;;;;4970347;28;20551;-30
2023/11/23 01:15:17;;;;;;;10.50;6.50;;;0.80;99.90;;;;;;4968094;28;20070;-34
2023/11/23 01:17:43;;;;;;;10.10;6.10;;;0.80;99.90;;;;;;4968777;28;20035;-32
2023/11/23 01:20:09;;;;;;;12.88;5.50;;;0.80;99.90;;;;;;4968752;28;20404;-30
2023/11/23 01:22:36;;;;;;;9.43;5.72;;;0.80;99.90;;;;;;4968938;28;20026;-33
2023/11/23 01:25:06;;;;;;;7.10;5.55;;;0.90;99.90;;;;;;4965609;28;20030;-31
2023/11/23 01:27:32;;;;;;;10.93;5.90;;;1.00;99.90;;;;;;4969489;28;20465;-31
2023/11/23 01:29:58;;;;;;;11.68;5.90;;;1.00;99.90;;;;;;4970406;28;20031;-30
2023/11/23 01:32:23;;;;;;;7.60;5.35;;;0.90;99.90;;;;;;4968096;28;20031;-31
2023/11/23 01:34:49;;;;;;;8.60;5.85;;;0.90;99.90;;;;;;4969236;28;20645;-30
2023/11/23 01:37:14;;;;;;;11.15;5.82;;;1.00;99.90;;;;;;4970523;28;20057;-30
2023/11/23 01:39:40;;;;;;;12.05;6.00;;;1.00;99.90;;;;;;4968029;28;20769;-33
2023/11/23 01:42:06;;;;;;;8.77;5.03;;;1.00;99.90;;;;;;4970664;28;20031;-30
2023/11/23 01:44:32;;;;;;;8.93;5.88;;;1.00;99.90;;;;;;4969312;28;20023;-33
2023/11/23 01:46:58;;;;;;;10.57;6.72;;;1.00;99.90;;;;;;4969063;28;20465;-32
2023/11/23 01:49:25;;;;;;;9.38;6.05;;;1.00;99.90;;;;;;4965636;28;20086;-31
2023/11/23 01:51:51;;;;;;;10.40;5.28;;;1.00;99.90;;;;;;4970013;28;20058;-31
2023/11/23 01:54:18;;;;;;;8.75;5.28;;;1.10;99.90;;;;;;4968455;28;20575;-29
2023/11/23 01:56:47;;;;;;;8.68;6.00;;;1.20;99.90;;;;;;4970519;28;20042;-30
2023/11/23 01:59:14;;;;;;;11.30;6.35;;;1.10;99.90;;;;;;4969786;28;20376;-31
2023/11/23 02:01:40;;;;;;;8.18;5.32;;;1.10;99.90;;;;;;4970431;28;20784;-29
2023/11/23 02:04:07;;;;;;;11.82;6.22;;;1.10;99.90;;;;;;4969925;28;20063;-29
2023/11/23 02:06:32;;;;;;;10.25;6.35;;;1.10;99.90;;;;;;4970741;28;20041;-32
2023/11/23 02:08:58;;;;;;;8.63;5.15;;;1.10;99.90;;;;;;4965784;28;20038;-37
2023/11/23 02:11:25;;;;;;;10.70;6.70;;;1.00;99.90;;;;;;4966291;28;20125;-33
2023/11/23 02:13:50;;;;;;;14.05;6.55;;;1.10;99.90;;;;;;4966677;28;20031;-32
2023/11/23 02:16:16;;;;;;;10.35;6.28;;;1.10;99.90;;;;;;4969907;28;20046;-34
2023/11/23 02:18:41;;;;;;;11.35;6.60;;;1.10;99.90;;;;;;4969952;28;20027;-32
2023/11/23 02:21:07;;;;;;;9.27;5.97;;;1.10;99.90;;;;;;4971139;28;20035;-32
2023/11/23 02:23:34;;;;;;;10.20;6.43;;;1.20;99.90;;;;;;4969368;28;20023;-33
2023/11/23 02:26:01;;;;;;;9.32;5.93;;;1.20;99.90;;;;;;4969702;28;20537;-33
2023/11/23 02:28:27;;;;;;;9.63;6.32;;;1.20;99.90;;;;;;4969920;28;20045;-34
2023/11/23 02:30:53;;;;;;;10.73;6.32;;;1.20;99.90;;;;;;4969447;28;20049;-33
2023/11/23 02:33:18;;;;;;;11.52;5.93;;;1.20;99.90;;;;;;4971317;28;20396;-34
2023/11/23 02:35:44;;;;;;;8.35;5.75;;;1.10;99.90;;;;;;4971314;28;20035;-32
2023/11/23 02:38:09;;;;;;;12.82;8.13;;;1.10;99.90;;;;;;4969631;28;20034;-34
2023/11/23 02:40:35;;;;;;;11.00;6.88;;;1.20;99.90;;;;;;4968914;28;20039;-32
2023/11/23 02:43:07;;;;;;;9.55;6.60;;;1.20;99.90;;;;;;4969766;28;20026;-32
2023/11/23 02:45:33;;;;;;;13.93;5.80;;;1.20;99.90;;;;;;4970209;28;20812;-32
2023/11/23 02:47:59;;;;;;;10.65;6.95;;;1.20;99.90;;;;;;4968980;28;20042;-34
2023/11/23 02:50:25;;;;;;;11.00;7.40;;;1.20;99.90;;;;;;4969605;28;20027;-33
2023/11/23 02:52:52;;;;;;;9.98;6.25;;;1.30;99.90;;;;;;4968520;28;20034;-32
2023/11/23 02:55:18;;;;;;;6.97;5.22;;;1.30;99.90;;;;;;4969384;28;20037;-32
2023/11/23 02:57:44;;;;;;;8.48;5.63;;;1.30;99.90;;;;;;4969112;28;20030;-32
2023/11/23 03:00:12;;;;;;;11.55;6.47;;;1.20;99.90;;;;;;4970126;28;20037;-32
2023/11/23 03:02:37;;;;;;;11.70;6.13;;;1.20;99.90;;;;;;4968773;28;20384;-36
2023/11/23 03:05:03;;;;;;;13.38;6.32;;;1.20;99.90;;;;;;4970692;28;20035;-32
2023/11/23 03:07:29;;;;;;;13.10;7.10;;;1.30;99.90;;;;;;4969020;28;20031;-34
2023/11/23 03:09:55;;;;;;;10.98;7.38;;;1.30;99.90;;;;;;4968374;28;20053;-37
2023/11/23 03:12:20;;;;;;;11.73;7.72;;;1.30;99.90;;;;;;4970066;28;20538;-35
2023/11/23 03:14:46;;;;;;;13.63;9.15;;;1.30;99.90;;;;;;4969126;28;20102;-33
2023/11/23 03:17:12;;;;;;;13.27;8.02;;;1.30;99.90;;;;;;4969907;28;20026;-31
2023/11/23 03:19:38;;;;;;;15.38;6.88;;;1.30;99.90;;;;;;4974010;28;20746;-34
2023/11/23 03:22:04;;;;;;;11.40;6.78;;;1.40;99.90;;;;;;4972214;28;20068;-30
2023/11/23 03:24:30;;;;;;;13.85;7.80;;;1.40;99.90;;;;;;4972214;28;20027;-31
2023/11/23 03:26:56;;;;;;;10.45;6.50;;;1.40;99.90;;;;;;4968045;28;20027;-30
2023/11/23 03:29:22;;;;;;;10.93;6.38;;;1.40;99.90;;;;;;4970711;28;20527;-33
2023/11/23 03:31:48;;;;;;;9.13;6.03;;;1.40;99.90;;;;;;4971367;28;20042;-30
2023/11/23 03:34:14;;;;;;;13.57;7.88;;;1.40;99.90;;;;;;4971289;28;20038;-30
2023/11/23 03:36:41;;;;;;;10.60;5.90;;;1.40;99.90;;;;;;4971643;28;20051;-39
2023/11/23 03:39:07;;;;;;;10.95;6.95;;;1.40;99.90;;;;;;4967920;28;20117;-38
2023/11/23 03:41:34;;;;;;;11.63;6.80;;;1.40;99.90;;;;;;4968541;28;20472;-39
2023/11/23 03:43:59;;;;;;;11.35;6.43;;;1.40;99.90;;;;;;4965711;28;20084;-39
2023/11/23 03:46:26;;;;;;;10.85;6.85;;;1.40;99.90;;;;;;4967973;28;20596;-39
2023/11/23 03:48:51;;;;;;;10.65;6.05;;;1.40;99.90;;;;;;4965439;28;20046;-36
2023/11/23 03:51:17;;;;;;;10.90;6.60;;;1.50;99.90;;;;;;4966932;28;20030;-36
2023/11/23 03:53:42;;;;;;;6.90;4.85;;;1.50;99.90;;;;;;4965986;28;20030;-39
2023/11/23 03:56:13;;;;;;;8.80;6.13;;;1.50;99.90;;;;;;4964354;28;20030;-39
2023/11/23 03:58:41;;;;;;;11.05;6.60;;;1.50;99.90;;;;;;4965296;28;20105;-39
2023/11/23 04:01:07;;;;;;;9.05;6.57;;;1.50;99.90;;;;;;4969193;28;20293;-39
2023/11/23 04:03:32;;;;;;;7.95;5.35;;;1.50;99.90;;;;;;4969139;28;20019;-39
2023/11/23 04:05:58;;;;;;;10.35;6.90;;;1.50;99.90;;;;;;4969255;28;20381;-39
2023/11/23 04:08:24;;;;;;;10.85;6.32;;;1.50;99.90;;;;;;4970127;28;20035;-38
2023/11/23 04:10:49;;;;;;;9.85;5.57;;;1.50;99.90;;;;;;4965317;28;20630;-39
2023/11/23 04:13:15;;;;;;;10.70;6.10;;;1.50;99.90;;;;;;4964916;28;20030;-38
2023/11/23 04:15:40;;;;;;;11.32;6.50;;;1.50;99.90;;;;;;4968837;28;20027;-39
2023/11/23 04:18:06;;;;;;;11.07;5.90;;;1.50;99.90;;;;;;4968687;28;20039;-37
2023/11/23 04:20:32;;;;;;;11.82;6.53;;;1.60;99.90;;;;;;4966810;28;20109;-35
2023/11/23 04:22:57;;;;;;;10.88;5.85;;;1.60;99.90;;;;;;4968040;28;20125;-37
2023/11/23 04:25:23;;;;;;;9.13;5.57;;;1.60;99.90;;;;;;4968296;28;20110;-38
2023/11/23 04:27:48;;;;;;;11.63;6.25;;;1.60;99.90;;;;;;4969802;28;20057;-30
2023/11/23 04:30:14;;;;;;;6.25;3.72;;;1.60;99.90;;;;;;4971144;28;20045;-30
2023/11/23 04:32:40;;;;;;;7.97;4.93;;;1.50;99.90;;;;;;4968992;28;20085;-29
2023/11/23 04:35:05;;;;;;;4.90;3.25;;;1.50;99.90;;;;;;4970832;28;20038;-30
2023/11/23 04:37:32;;;;;;;11.40;5.47;;;1.40;99.90;;;;;;4967427;28;20058;-34
2023/11/23 04:39:57;;;;;;;9.95;6.25;;;1.40;99.90;;;;;;4967474;28;20468;-33
2023/11/23 04:42:23;;;;;;;12.70;7.03;;;1.40;99.90;;;;;;4968316;28;20026;-32
2023/11/23 04:44:48;;;;;;;8.93;5.70;;;1.40;99.90;;;;;;4968860;28;20034;-32
2023/11/23 04:47:14;;;;;;;10.00;5.70;;;1.30;99.90;;;;;;4967372;28;20057;-39
2023/11/23 04:49:40;;;;;;;7.60;4.95;;;1.30;99.90;;;;;;4967605;28;20039;-41
2023/11/23 04:52:06;;;;;;;9.38;5.97;;;1.30;99.90;;;;;;4967287;28;20488;-36
2023/11/23 04:54:31;;;;;;;7.43;5.22;;;1.20;99.90;;;;;;4966903;28;20023;-35
2023/11/23 04:56:57;;;;;;;9.68;6.22;;;1.20;99.90;;;;;;4967625;28;20089;-41
2023/11/23 04:59:22;;;;;;;7.22;4.47;;;1.20;99.90;;;;;;4968326;28;20471;-38
2023/11/23 05:01:48;;;;;;;7.07;5.30;;;1.10;99.90;;;;;;4966378;28;20101;-37
2023/11/23 05:04:13;;;;;;;10.32;5.78;;;1.20;99.90;;;;;;4966238;28;20066;-40
2023/11/23 05:06:39;;;;;;;4.68;3.10;;;1.10;99.90;;;;;;4968187;28;20030;-40
2023/11/23 05:09:05;;;;;;;8.68;5.82;;;1.10;99.90;;;;;;4968088;28;20022;-41
2023/11/23 05:11:32;;;;;;;10.95;6.13;;;1.10;99.90;;;;;;4967921;28;20388;-36
2023/11/23 05:14:05;;;;;;;9.07;6.13;;;1.10;99.90;;;;;;4967845;28;20037;-35
2023/11/23 05:16:31;;;;;;;7.22;5.53;;;1.00;99.90;;;;;;4966923;28;20027;-32
2023/11/23 05:18:57;;;;;;;8.18;5.32;;;1.00;99.90;;;;;;4965774;28;20034;-38
2023/11/23 05:21:22;;;;;;;9.57;5.07;;;1.00;99.90;;;;;;4964592;28;20069;-36
2023/11/23 05:23:48;;;;;;;7.40;4.93;;;1.00;99.90;;;;;;4966164;28;20097;-39
2023/11/23 05:26:13;;;;;;;7.85;4.25;;;1.00;99.90;;;;;;4968533;28;20041;-39
2023/11/23 05:28:39;;;;;;;11.73;6.18;;;1.00;99.90;;;;;;4967136;28;20030;-40
2023/11/23 05:31:04;;;;;;;9.85;6.43;;;1.00;99.90;;;;;;4964689;28;20042;-38
2023/11/23 05:33:30;;;;;;;8.18;5.72;;;1.00;99.90;;;;;;4967742;28;20114;-38
2023/11/23 05:35:56;;;;;;;10.48;5.65;;;0.90;99.90;;;;;;4967217;28;20077;-38
2023/11/23 05:38:22;;;;;;;4.60;4.15;;;0.90;99.90;;;;;;4963595;28;20038;-33
2023/11/23 05:40:49;;;;;;;6.65;3.92;;;0.90;99.90;;;;;;4961445;28;20109;-41
2023/11/23 05:43:15;;;;;;;11.00;5.85;;;0.90;99.90;;;;;;4968852;28;20815;-41
2023/11/23 05:45:40;;;;;;;5.47;4.28;;;0.90;99.90;;;;;;4964239;28;20080;-42
2023/11/23 05:48:06;;;;;;;11.88;5.93;;;0.90;99.90;;;;;;4966880;28;20408;-32
2023/11/23 05:50:31;;;;;;;9.95;5.60;;;0.90;99.90;;;;;;4968611;28;20034;-36
2023/11/23 05:52:57;;;;;;;10.02;5.28;;;0.90;99.90;;;;;;4971108;28;20030;-31
2023/11/23 05:55:22;;;;;;;9.55;6.38;;;0.80;99.90;;;;;;4973834;28;20503;-32
2023/11/23 05:57:48;;;;;;;4.93;3.50;;;0.80;99.90;;;;;;4972659;28;20065;-39
2023/11/23 06:00:14;;;;;;;5.82;4.18;;;0.80;99.90;;;;;;4974310;28;20473;-38
2023/11/23 06:02:41;;;;;;;9.13;5.95;;;0.70;99.90;;;;;;4971460;28;20027;-39
2023/11/23 06:05:06;;;;;;;7.43;5.60;;;0.80;99.90;;;;;;4956463;28;20489;-37
2023/11/23 06:07:32;;;;;;;10.02;4.82;;;0.80;99.90;;;;;;4976366;28;20026;-39
2023/11/23 06:10:01;;;;;;;8.02;4.93;;;0.80;99.90;;;;;;4973329;28;20051;-39
2023/11/23 06:12:26;;;;;;;10.50;5.72;;;0.70;99.90;;;;;;4974799;28;20035;-37
2023/11/23 06:14:52;;;;;;;8.88;5.07;;;0.70;99.90;;;;;;4968119;28;20093;-39
2023/11/23 06:17:18;;;;;;;8.68;5.63;;;0.70;99.90;;;;;;4968262;28;20100;-37
2023/11/23 06:19:44;;;;;;;6.88;4.72;;;0.80;99.90;;;;;;4973182;28;20127;-38
2023/11/23 06:22:11;;;;;;;9.15;5.50;;;0.70;99.90;;;;;;4973169;28;20030;-39
2023/11/23 06:24:36;;;;;;;7.25;4.20;;;0.70;99.90;;;;;;4972594;28;20068;-39
2023/11/23 06:27:03;;;;;;;10.70;5.90;;;0.70;99.90;;;;;;4973629;28;20035;-38
2023/11/23 06:29:28;;;;;;;7.57;4.85;;;0.70;99.90;;;;;;4973627;28;20706;-38
2023/11/23 06:31:56;;;;;;;8.57;5.22;;;0.70;99.90;;;;;;4972508;28;20122;-40
2023/11/23 06:34:22;;;;;;;7.70;5.13;;;0.70;99.90;;;;;;4973417;28;20042;-37
2023/11/23 06:36:49;;;;;;;8.43;5.25;;;0.70;99.90;;;;;;4973070;28;20329;-36
2023/11/23 06:39:23;;;;;;;7.55;4.72;;;0.70;99.90;;;;;;4971989;28;20148;-39
2023/11/23 06:41:51;;;;;;;9.15;4.82;;;0.70;99.90;;;;;;4968780;28;20178;-39
2023/11/23 06:44:18;;;;;;;7.88;5.45;;;0.60;99.90;;;;;;4967640;28;20073;-38
2023/11/23 06:46:43;;;;;;;10.70;5.88;;;0.70;99.90;;;;;;4972923;28;20070;-38
2023/11/23 06:49:09;;;;;;;7.40;5.22;;;0.70;99.90;;;;;;4966522;28;20535;-39
2023/11/23 06:51:34;;;;;;;6.90;4.22;;;0.70;99.90;;;;;;4969408;28;20086;-38
2023/11/23 06:54:00;;;;;;;9.70;5.50;;;0.70;99.90;;;;;;4965269;28;20030;-40
2023/11/23 06:56:26;;;;;;;8.00;5.32;;;0.70;99.90;;;;;;4965972;28;20069;-39
2023/11/23 06:58:52;;;;;;;12.20;6.20;;;0.70;99.90;;;;;;4969540;28;20077;-33
2023/11/23 07:01:17;;;;;;;8.02;5.32;;;0.70;99.90;;;;;;4967935;28;20030;-35
2023/11/23 07:03:43;;;;;;;8.27;5.05;;;0.70;99.90;;;;;;4965242;28;20511;-31
2023/11/23 07:06:10;;;;;;;9.20;5.25;;;0.70;99.90;;;;;;4964051;28;20464;-33
2023/11/23 07:08:37;;;;;;;8.80;5.65;;;0.70;99.90;;;;;;4968405;28;20054;-32
2023/11/23 07:11:07;;;;;;;10.73;6.53;;;0.70;99.90;;;;;;4967118;28;20034;-30
2023/11/23 07:13:33;;;;;;;7.82;5.22;;;0.70;99.90;;;;;;4967074;28;20030;-32
2023/11/23 07:15:59;;;;;;;8.30;4.80;;;0.70;99.90;;;;;;4965191;28;20058;-34
2023/11/23 07:18:26;;;;;;;9.25;5.18;;;0.70;99.90;;;;;;4963506;28;20067;-32
2023/11/23 07:20:55;;;;;;;10.20;5.20;;;0.70;99.90;;;;;;4965310;28;20066;-31
2023/11/23 07:23:24;;;;;;;6.82;5.13;;;0.60;99.90;;;;;;4966869;28;20114;-37
2023/11/23 07:25:52;;;;;;;7.03;4.53;;;0.70;99.90;;;;;;4964440;28;20047;-35
2023/11/23 07:28:17;;;;;;;9.95;6.22;;;0.60;99.90;;;;;;4967314;28;20581;-31
2023/11/23 07:30:43;;;;;;;9.18;5.97;;;0.60;99.90;;;;;;4961180;28;20034;-31
2023/11/23 07:33:09;;;;;;;10.73;5.28;;;0.60;99.90;;;;;;4959646;28;20034;-32
2023/11/23 07:35:36;;;;;;;5.63;4.32;;;0.70;99.90;;;;;;4962332;28;20038;-32
2023/11/23 07:38:05;;;;;;;9.63;5.63;;;0.70;99.90;;;;;;4962409;28;20065;-33
2023/11/23 07:40:31;;;;;;;10.50;5.22;;;0.80;99.90;;;;;;4963642;28;20142;-37
2023/11/23 07:42:57;;;;;;;6.82;3.92;;;0.80;99.90;;;;;;4964079;28;20031;-33
2023/11/23 07:45:23;;;;;;;10.38;5.97;;;0.90;99.90;;;;;;4960101;28;20030;-32
2023/11/23 07:47:49;;;;;;;12.15;6.15;;;0.90;99.90;;;;;;4964279;28;20089;-34
2023/11/23 07:50:17;;;;;;;10.65;5.15;;;1.00;99.90;;;;;;4962172;28;20023;-32
2023/11/23 07:52:46;;;;;;;7.25;4.57;;;1.00;99.90;;;;;;4963854;28;20055;-31
2023/11/23 07:55:15;;;;;;;4.93;3.83;;;1.10;99.90;;;;;;4963054;28;20066;-34
2023/11/23 07:57:42;;;;;;;8.00;5.07;;;1.10;99.90;;;;;;4960619;28;20069;-34
2023/11/23 08:00:08;;;;;;;11.70;5.88;;;1.20;99.90;;;;;;4964608;28;20590;-32
2023/11/23 08:02:34;;;;;;;13.80;7.22;;;1.20;99.90;;;;;;4962875;28;20039;-32
2023/11/23 08:04:59;;;;;;;6.43;4.40;;;1.20;99.90;;;;;;4969540;28;20057;-35
2023/11/23 08:07:25;;;;;;;9.02;5.80;;;1.20;99.90;;;;;;4962897;28;20058;-32
2023/11/23 08:09:51;;;;;;;9.40;5.78;;;1.20;99.90;;;;;;4960701;28;20476;-32
2023/11/23 08:12:18;;;;;;;11.77;6.80;;;1.20;99.90;;;;;;4963729;28;20045;-32
2023/11/23 08:14:44;;;;;;;7.93;4.82;;;1.20;99.90;;;;;;4962451;28;20027;-33
2023/11/23 08:17:11;;;;;;;8.90;5.97;;;1.20;99.90;;;;;;4960931;28;20031;-35
2023/11/23 08:19:37;;;;;;;9.05;5.45;;;1.30;99.90;;;;;;4964104;28;20035;-32
2023/11/23 08:22:07;;;;;;;8.43;4.68;;;1.30;99.90;;;;;;4962225;28;20045;-34
2023/11/23 08:24:32;;;;;;;6.05;3.97;;;1.30;99.90;;;;;;4961079;28;20146;-34
2023/11/23 08:26:58;;;;;;;5.38;4.18;;;1.40;99.90;;;;;;4963686;28;20529;-30
2023/11/23 08:29:24;;;;;;;4.90;3.78;;;1.40;99.90;;;;;;4965645;28;20057;-36
2023/11/23 08:31:51;;;;;;;6.50;4.00;;;1.40;99.90;;;;;;4963217;28;20687;-30
2023/11/23 08:34:16;;;;;;;8.13;5.00;;;1.40;99.90;;;;;;4967005;28;20562;-33
2023/11/23 08:36:43;;;;;;;5.47;4.18;;;1.50;99.90;;;;;;4964948;28;20051;-32
2023/11/23 08:39:12;;;;;;;11.05;5.88;;;1.60;99.90;;;;;;4967856;28;20035;-30
2023/11/23 08:41:38;;;;;;;6.72;4.50;;;1.70;99.90;;;;;;4960670;28;20702;-31
2023/11/23 08:44:05;;;;;;;5.55;3.10;;;1.80;99.90;;;;;;4963469;28;20157;-30
2023/11/23 08:46:33;;;;;;;7.97;4.88;;;1.90;99.90;;;;;;4964760;28;20037;-35
2023/11/23 08:49:02;;;;;;;6.47;4.60;;;1.90;99.90;;;;;;4948342;28;20042;-31
2023/11/23 08:51:28;;;;;;;;;;;2.00;99.90;;;;;;4964441;28;20031;-30
2023/11/23 08:53:54;;;;;;;7.28;3.63;;;2.00;99.90;;;;;;4964438;28;19918;-30
2023/11/23 08:56:20;;;;;;;7.63;4.97;;;2.10;99.90;;;;;;4960753;28;20027;-34
2023/11/23 08:58:46;;;;;;;8.75;4.75;;;2.20;99.90;;;;;;4962957;28;20031;-31
2023/11/23 09:01:11;;;;;;;8.05;5.15;;;2.30;99.90;;;;;;4963453;28;20420;-33
2023/11/23 09:03:37;;;;;;;8.20;4.65;;;2.30;99.90;;;;;;4963357;28;20061;-30
2023/11/23 09:06:03;;;;;;;8.15;3.92;;;2.30;99.90;;;;;;4969161;28;20494;-32
2023/11/23 09:08:29;;;;;;;9.95;4.60;;;2.30;99.90;;;;;;4965345;28;20033;-31
2023/11/23 09:10:55;;;;;;;8.57;5.03;;;2.40;99.90;;;;;;4965190;28;20069;-30
2023/11/23 09:13:21;;;;;;;7.05;4.05;;;2.40;99.90;;;;;;4970477;28;20034;-33
2023/11/23 09:15:47;;;;;;;6.07;4.03;;;2.50;99.90;;;;;;4964426;28;20112;-30
2023/11/23 09:18:13;;;;;;;9.85;5.85;;;2.60;99.90;;;;;;4967029;28;20019;-31
2023/11/23 09:20:39;;;;;;;7.80;4.25;;;2.60;99.90;;;;;;4967362;28;20042;-34
2023/11/23 09:23:05;;;;;;;2.85;2.10;;;2.60;99.90;;;;;;4960635;28;20081;-35
2023/11/23 09:25:33;;;;;;;4.78;3.90;;;2.80;99.90;;;;;;4953514;28;20069;-36
2023/11/23 09:27:59;;;;;;;6.53;4.18;;;2.80;99.90;;;;;;4959767;28;20038;-32
2023/11/23 09:30:25;;;;;;;4.43;3.38;;;2.90;99.90;;;;;;4963176;28;20089;-33
2023/11/23 09:32:52;;;;;;;10.10;5.80;;;2.90;99.90;;;;;;4965890;28;20027;-32
2023/11/23 09:35:19;;;;;;;8.25;3.97;;;2.90;99.90;;;;;;4965932;28;20041;-32
2023/11/23 09:37:44;;;;;;;10.57;5.22;;;2.90;99.90;;;;;;4967207;28;20077;-40
2023/11/23 09:40:18;;;;;;;5.03;4.22;;;2.90;99.90;;;;;;4964280;28;20388;-40
2023/11/23 09:42:47;;;;;;;8.15;5.15;;;2.90;99.90;;;;;;4964781;28;20392;-41
2023/11/23 09:45:18;;;;;;;6.93;4.07;;;2.90;99.90;;;;;;4966512;28;20023;-37
2023/11/23 09:47:45;;;;;;;6.18;3.35;;;3.00;99.90;;;;;;4964319;28;20063;-40
2023/11/23 09:50:11;;;;;;;8.18;4.15;;;3.00;99.90;;;;;;4967994;28;20057;-41
2023/11/23 09:52:37;;;;;;;10.93;5.78;;;3.10;99.90;;;;;;4966661;28;20054;-38
2023/11/23 09:55:07;;;;;;;9.35;5.00;;;3.20;99.90;;;;;;4966754;28;20101;-37
2023/11/23 09:57:33;;;;;;;8.65;5.57;;;3.20;99.90;;;;;;4963930;28;20041;-41
2023/11/23 09:59:58;;;;;;;5.70;2.50;;;3.20;99.90;;;;;;4969832;28;20424;-37
2023/11/23 10:02:24;;;;;;;6.65;4.05;;;3.30;99.90;;;;;;4966454;28;20663;-41
2023/11/23 10:04:52;;;;;;;8.60;5.10;;;3.40;99.90;;;;;;4973076;28;20742;-40
2023/11/23 10:07:18;;;;;;;5.10;3.97;;;3.50;99.90;;;;;;4967096;28;20485;-37
2023/11/23 10:09:46;;;;;;;7.95;4.57;;;3.60;99.90;;;;;;4966900;28;20038;-41
2023/11/23 10:12:12;;;;;;;6.95;4.43;;;3.60;99.90;;;;;;4962320;28;20039;-39
2023/11/23 10:14:39;;;;;;;5.68;3.92;;;3.60;99.90;;;;;;4967821;28;20030;-38
2023/11/23 10:17:06;;;;;;;7.85;5.50;;;3.60;99.90;;;;;;4966821;28;20035;-40
2023/11/23 10:19:32;;;;;;;9.52;5.68;;;3.60;99.90;;;;;;4963931;28;20026;-35
2023/11/23 10:22:03;;;;;;;8.20;4.70;;;3.60;99.90;;;;;;4968515;28;20069;-34
2023/11/23 10:24:29;;;;;;;3.38;2.85;;;3.60;99.90;;;;;;4963803;28;20642;-40
2023/11/23 10:26:55;;;;;;;7.28;4.35;;;3.70;99.90;;;;;;4965625;28;20531;-34
2023/11/23 10:29:26;;;;;;;7.35;4.75;;;3.70;99.90;;;;;;4965927;28;20030;-33
2023/11/23 10:31:52;;;;;;;7.88;4.75;;;3.80;99.90;;;;;;4964140;28;20066;-32
2023/11/23 10:34:18;;;;;;;11.07;5.78;;;3.80;99.90;;;;;;4965718;28;20051;-32
2023/11/23 10:36:48;;;;;;;8.95;4.82;;;3.80;99.90;;;;;;4966223;28;20054;-36
2023/11/23 10:39:16;;;;;;;6.65;4.82;;;3.80;99.90;;;;;;4968456;28;20034;-33
2023/11/23 10:41:44;;;;;;;7.38;4.35;;;3.80;99.90;;;;;;4951354;28;20161;-32
2023/11/23 10:44:12;;;;;;;6.80;5.22;;;4.00;99.90;;;;;;4966054;28;20110;-32
2023/11/23 10:46:38;;;;;;;8.00;5.25;;;4.00;99.90;;;;;;4968698;28;20480;-33
2023/11/23 10:49:06;;;;;;;8.82;5.20;;;4.00;99.90;;;;;;4969145;28;20038;-30
2023/11/23 10:51:33;;;;;;;5.45;3.63;;;4.10;99.90;;;;;;4971408;28;20496;-31
2023/11/23 10:54:02;;;;;;;4.80;3.65;;;4.20;99.90;;;;;;4970827;28;20481;-30
2023/11/23 10:56:30;;;;;;;8.13;5.63;;;4.30;99.90;;;;;;4971072;28;20027;-30
2023/11/23 10:59:01;;;;;;;8.37;5.07;;;4.30;99.90;;;;;;4970397;28;20031;-30
2023/11/23 11:01:29;;;;;;;10.27;5.93;;;4.30;99.90;;;;;;4970740;28;20118;-30
2023/11/23 11:03:55;;;;;;;6.68;3.75;;;4.40;99.90;;;;;;4970366;28;20031;-30
2023/11/23 11:06:22;;;;;;;8.82;5.22;;;4.40;99.90;;;;;;4972185;28;20034;-35
2023/11/23 11:08:49;;;;;;;7.13;4.90;;;4.40;99.90;;;;;;4969318;28;20081;-30
2023/11/23 11:11:22;;;;;;;8.15;5.18;;;4.40;99.90;;;;;;4971051;28;20089;-29
2023/11/23 11:13:48;;;;;;;8.00;5.03;;;4.40;99.90;;;;;;4969233;28;20459;-30
2023/11/23 11:16:15;;;;;;;6.88;4.45;;;4.40;99.90;;;;;;4969161;28;20121;-30
2023/11/23 11:18:52;;;;;;;7.53;5.10;;;4.50;99.90;;;;;;4969496;28;20121;-29
2023/11/23 11:21:20;;;;;;;9.15;5.40;;;4.50;99.90;;;;;;4968640;28;20058;-30
2023/11/23 11:23:47;;;;;;;;;;;4.50;99.90;;;;;;4970249;28;20431;-30
2023/11/23 11:26:14;;;;;;;7.05;4.93;;;4.60;99.90;;;;;;4970044;28;20005;-30
2023/11/23 11:28:40;;;;;;;6.25;3.95;;;4.70;99.90;;;;;;4965472;28;20039;-29
2023/11/23 11:31:08;;;;;;;7.28;4.10;;;4.60;99.90;;;;;;4964316;28;20034;-31
2023/11/23 11:33:38;;;;;;;8.48;4.78;;;4.60;99.90;;;;;;4970704;28;20030;-29
2023/11/23 11:36:07;;;;;;;5.55;3.83;;;4.70;99.90;;;;;;4970846;28;20050;-29
2023/11/23 11:38:33;;;;;;;10.23;5.10;;;4.70;99.90;;;;;;4969938;28;20063;-39
2023/11/23 11:41:01;;;;;;;5.88;3.90;;;4.70;99.90;;;;;;4968794;28;20116;-40
2023/11/23 11:43:27;;;;;;;;;;;4.80;99.90;;;;;;4963976;28;20031;-39
2023/11/23 11:45:53;;;;;;;6.03;4.13;;;4.80;99.90;;;;;;4967267;28;20283;-39
2023/11/23 11:48:19;;;;;;;3.25;3.00;;;4.80;99.90;;;;;;4967574;28;20045;-39
2023/11/23 11:50:54;;;;;;;8.50;5.15;;;4.90;99.90;;;;;;4968914;28;20125;-37
2023/11/23 11:53:20;;;;;;;5.85;4.53;;;4.90;99.90;;;;;;4969050;28;20073;-38
2023/11/23 11:55:49;;;;;;;8.75;5.45;;;4.90;99.90;;;;;;4969917;28;20031;-38
2023/11/23 11:58:15;;;;;;;6.13;4.07;;;4.90;99.90;;;;;;4967471;28;20026;-33
2023/11/23 12:00:44;;;;;;;6.55;4.30;;;5.00;99.90;;;;;;4967483;28;20109;-32
2023/11/23 12:03:10;;;;;;;8.20;4.65;;;5.10;99.90;;;;;;4967244;28;20460;-32
2023/11/23 12:05:40;;;;;;;7.75;4.72;;;5.00;99.90;;;;;;4964604;28;20499;-35
2023/11/23 12:08:06;;;;;;;6.78;4.50;;;5.10;99.90;;;;;;4968663;28;20027;-38
2023/11/23 12:10:39;;;;;;;7.35;4.80;;;5.10;99.90;;;;;;4967217;28;20029;-38
2023/11/23 12:13:14;;;;;;;6.22;3.78;;;5.10;99.90;;;;;;4967462;28;20054;-39
2023/11/23 12:15:46;;;;;;;6.13;4.25;;;5.10;99.90;;;;;;4966794;28;20570;-40
2023/11/23 12:18:13;;;;;;;8.10;5.25;;;5.20;99.90;;;;;;4966400;28;20031;-39
2023/11/23 12:20:39;;;;;;;4.88;3.75;;;5.30;99.90;;;;;;4968845;28;20034;-39
2023/11/23 12:23:05;;;;;;;9.25;5.70;;;5.20;99.90;;;;;;4969608;28;20031;-39
2023/11/23 12:25:33;;;;;;;6.03;4.15;;;5.20;99.90;;;;;;4967374;28;20027;-37
2023/11/23 12:27:59;;;;;;;3.30;2.33;;;5.20;99.90;;;;;;4968890;28;20031;-39
2023/11/23 12:30:25;;;;;;;8.75;4.93;;;5.30;99.90;;;;;;4965685;28;20046;-38
2023/11/23 12:32:51;;;;;;;3.80;3.22;;;5.30;99.90;;;;;;4967846;28;20388;-39
2023/11/23 12:35:17;;;;;;;8.38;5.03;;;5.30;99.90;;;;;;4967471;28;20035;-40
2023/11/23 12:37:44;;;;;;;5.68;3.50;;;5.40;99.90;;;;;;4968082;28;20030;-39
2023/11/23 12:40:11;;;;;;;5.22;3.30;;;5.40;99.90;;;;;;4967944;28;20034;-39
2023/11/23 12:42:38;;;;;;;4.40;3.85;;;5.40;99.90;;;;;;4966554;28;20042;-40
2023/11/23 12:45:08;;;;;;;7.25;4.55;;;5.50;99.90;;;;;;4968033;28;20040;-38
2023/11/23 12:47:36;;;;;;;6.50;4.40;;;5.50;99.90;;;;;;4969242;28;20426;-34
2023/11/23 12:50:10;;;;;;;3.38;2.42;;;5.50;99.90;;;;;;4966067;28;20101;-34
2023/11/23 12:52:39;;;;;;;6.13;4.28;;;5.50;99.90;;;;;;4965738;28;20081;-33